Time;durP1;ratioP1;P1;durP2;ratioP2;P2;SDS_P1;SDS_P2;PMS_P1;PMS_P2;Temp;Humidity;BMP_temperature;BMP_pressure;BME280_temperature;BME280_humidity;BME280_pressure;Samples;Min_cycle;Max_cycle;Signal;HPM_P1;HPM_P2
2021/05/19 00:00:09;;;;;;;0.17;0.17;;;16.20;82.90;;;;;;4191782;28;20055;-45
2021/05/19 00:02:32;;;;;;;0.45;0.45;;;16.20;83.00;;;;;;4189059;28;20574;-48
2021/05/19 00:04:53;;;;;;;0.35;0.35;;;16.10;82.90;;;;;;4175790;28;20124;-48
2021/05/19 00:07:15;;;;;;;4.35;2.22;;;16.10;82.90;;;;;;4189258;28;20059;-48
2021/05/19 00:09:37;;;;;;;1.65;1.02;;;16.10;83.00;;;;;;4190145;28;20059;-46
2021/05/19 00:11:59;;;;;;;0.28;0.13;;;16.10;82.90;;;;;;4190718;28;20040;-51
2021/05/19 00:14:22;;;;;;;0.20;0.20;;;16.10;83.00;;;;;;4187936;28;20475;-52
2021/05/19 00:16:44;;;;;;;0.10;0.10;;;16.10;83.00;;;;;;4182854;28;20072;-51
2021/05/19 00:19:06;;;;;;;0.57;0.57;;;16.10;83.00;;;;;;4190274;28;20565;-51
2021/05/19 00:21:29;;;;;;;0.28;0.28;;;16.10;83.00;;;;;;4191519;28;20418;-52
2021/05/19 00:23:50;;;;;;;;;;;16.10;83.20;;;;;;4190407;28;20066;-50
2021/05/19 00:26:11;;;;;;;;;;;16.10;83.20;;;;;;4191904;28;20402;-49
2021/05/19 00:28:33;;;;;;;0.32;0.32;;;16.10;83.30;;;;;;4192017;28;20429;-48
2021/05/19 00:30:57;;;;;;;0.43;0.43;;;16.10;83.20;;;;;;4185733;28;20111;-49
2021/05/19 00:33:18;;;;;;;0.00;0.00;;;16.00;83.20;;;;;;4174545;28;20045;-48
2021/05/19 00:35:40;;;;;;;0.20;0.20;;;16.00;83.20;;;;;;4173985;28;20052;-46
2021/05/19 00:38:02;;;;;;;0.70;0.70;;;16.00;83.20;;;;;;4174205;28;20052;-50
2021/05/19 00:40:24;;;;;;;0.40;0.40;;;16.00;83.30;;;;;;4175173;28;20119;-47
2021/05/19 00:42:45;;;;;;;0.10;0.10;;;16.00;83.30;;;;;;4177189;28;20057;-47
2021/05/19 00:45:09;;;;;;;0.17;0.17;;;16.00;84.20;;;;;;4190809;28;20048;-50
2021/05/19 00:47:33;;;;;;;0.10;0.10;;;16.00;83.40;;;;;;4191784;28;20135;-51
2021/05/19 00:49:56;;;;;;;0.00;0.00;;;16.00;83.40;;;;;;4194282;28;20048;-48
2021/05/19 00:52:18;;;;;;;0.13;0.13;;;16.00;83.50;;;;;;4175209;28;20053;-51
2021/05/19 00:54:39;;;;;;;0.00;0.00;;;16.00;84.30;;;;;;4174796;28;20048;-48
2021/05/19 00:57:01;;;;;;;0.00;0.00;;;15.90;83.40;;;;;;4177092;28;20052;-47
2021/05/19 00:59:23;;;;;;;0.17;0.17;;;15.90;83.40;;;;;;4207935;28;20044;-49
2021/05/19 01:01:53;;;;;;;0.30;0.30;;;15.90;83.40;;;;;;4201072;28;20515;-50
2021/05/19 01:04:16;;;;;;;1.48;0.73;;;15.90;83.50;;;;;;4189989;28;20048;-51
2021/05/19 01:06:51;;;;;;;0.00;0.00;;;15.90;83.50;;;;;;4180264;28;20427;-51
2021/05/19 01:11:53;;;;;;;0.25;0.25;;;15.90;83.60;;;;;;4200856;28;20047;-48
2021/05/19 01:14:14;;;;;;;0.00;0.00;;;15.90;83.60;;;;;;4191331;28;20489;-49
2021/05/19 01:16:36;;;;;;;0.00;0.00;;;15.90;83.60;;;;;;4191070;28;20048;-49
2021/05/19 01:18:59;;;;;;;0.10;0.10;;;15.90;83.60;;;;;;4191536;28;20051;-49
2021/05/19 01:21:24;;;;;;;0.00;0.00;;;15.90;83.60;;;;;;4197440;28;20060;-50
2021/05/19 01:23:49;;;;;;;0.10;0.10;;;15.80;83.60;;;;;;4208017;28;20055;-51
2021/05/19 01:26:13;;;;;;;0.00;0.00;;;15.80;83.50;;;;;;4206071;28;20050;-49
2021/05/19 01:28:35;;;;;;;0.00;0.00;;;15.80;83.60;;;;;;4207593;28;20472;-49
2021/05/19 01:30:56;;;;;;;0.15;0.15;;;15.80;83.60;;;;;;4195752;28;20096;-47
2021/05/19 01:33:19;;;;;;;0.35;0.20;;;15.80;84.40;;;;;;4198626;28;20048;-50
2021/05/19 01:35:40;;;;;;;0.10;0.10;;;15.80;83.60;;;;;;4190676;28;20103;-50
2021/05/19 01:38:01;;;;;;;;;;;15.80;83.60;;;;;;4192896;28;20059;-46
2021/05/19 01:40:24;;;;;;;2.90;0.43;;;15.80;83.70;;;;;;4191721;28;19928;-51
2021/05/19 01:42:47;;;;;;;0.17;0.17;;;15.80;83.70;;;;;;4189553;28;20103;-47
2021/05/19 01:45:24;;;;;;;0.47;0.47;;;15.80;83.70;;;;;;4189071;28;20074;-49
2021/05/19 01:47:48;;;;;;;0.45;0.45;;;15.70;83.70;;;;;;4191186;28;20101;-49
2021/05/19 01:50:13;;;;;;;0.20;0.20;;;15.80;83.70;;;;;;4190031;28;20079;-48
2021/05/19 01:52:36;;;;;;;0.00;0.00;;;15.70;83.70;;;;;;4174419;28;20064;-46
2021/05/19 01:54:59;;;;;;;0.25;0.25;;;15.80;83.80;;;;;;4188332;28;20085;-47
2021/05/19 01:57:21;;;;;;;0.10;0.10;;;15.80;83.80;;;;;;4185548;28;20490;-50
2021/05/19 01:59:42;;;;;;;0.00;0.00;;;15.70;83.70;;;;;;4176401;28;20182;-48
2021/05/19 02:02:04;;;;;;;0.22;0.22;;;15.70;83.70;;;;;;4206809;28;20079;-49
2021/05/19 02:04:27;;;;;;;0.15;0.15;;;15.70;83.70;;;;;;4195242;28;20087;-46
2021/05/19 02:06:53;;;;;;;0.00;0.00;;;15.70;83.80;;;;;;4196476;28;20525;-48
2021/05/19 02:09:19;;;;;;;0.10;0.10;;;15.70;84.10;;;;;;4192216;28;20075;-46
2021/05/19 02:11:41;;;;;;;0.00;0.00;;;15.70;84.10;;;;;;4187944;28;20040;-48
2021/05/19 02:14:04;;;;;;;1.75;1.65;;;15.70;84.00;;;;;;4193939;28;20127;-50
2021/05/19 02:16:26;;;;;;;0.08;0.08;;;15.70;83.80;;;;;;4193421;28;20106;-46
2021/05/19 02:18:48;;;;;;;0.00;0.00;;;15.70;83.70;;;;;;4193605;28;20128;-46
2021/05/19 02:21:14;;;;;;;0.00;0.00;;;15.70;83.70;;;;;;4188473;28;20052;-50
2021/05/19 02:23:45;;;;;;;0.00;0.00;;;15.70;83.60;;;;;;4193701;28;20058;-49
2021/05/19 02:26:07;;;;;;;0.00;0.00;;;15.70;83.60;;;;;;4194003;28;20052;-52
2021/05/19 02:28:29;;;;;;;0.43;0.43;;;15.60;83.60;;;;;;4196505;28;20055;-52
2021/05/19 02:30:52;;;;;;;0.00;0.00;;;15.70;83.70;;;;;;4177152;28;20052;-51
2021/05/19 02:33:21;;;;;;;0.30;0.30;;;15.60;84.20;;;;;;4174885;28;20064;-51
2021/05/19 02:35:44;;;;;;;0.00;0.00;;;15.60;83.70;;;;;;4180673;28;20045;-52
2021/05/19 02:38:06;;;;;;;0.28;0.28;;;15.60;83.70;;;;;;4196325;28;20050;-50
2021/05/19 02:40:29;;;;;;;0.00;0.00;;;15.60;83.70;;;;;;4196013;28;20461;-51
2021/05/19 02:42:51;;;;;;;0.00;0.00;;;15.60;83.70;;;;;;4193960;28;20212;-46
2021/05/19 02:45:18;;;;;;;0.00;0.00;;;15.60;83.80;;;;;;4191499;28;20056;-50
2021/05/19 02:47:40;;;;;;;;;;;15.60;83.70;;;;;;4192691;28;20052;-47
2021/05/19 02:50:02;;;;;;;0.22;0.22;;;15.60;83.80;;;;;;4193419;28;19966;-49
2021/05/19 02:52:24;;;;;;;0.00;0.00;;;15.60;83.90;;;;;;4193389;28;20046;-51
2021/05/19 02:54:46;;;;;;;1.20;1.20;;;15.60;83.90;;;;;;4192991;28;20123;-46
2021/05/19 02:57:08;;;;;;;;;;;15.60;83.90;;;;;;4177904;28;20052;-50
2021/05/19 02:59:29;;;;;;;0.10;0.10;;;15.60;83.90;;;;;;4177174;28;19956;-50
2021/05/19 03:01:51;;;;;;;0.00;0.00;;;15.60;83.90;;;;;;4193191;28;20153;-49
2021/05/19 03:04:14;;;;;;;1.67;0.57;;;15.50;83.90;;;;;;4176634;28;20056;-50
2021/05/19 03:06:36;;;;;;;0.10;0.10;;;15.50;83.90;;;;;;4189357;28;20036;-50
2021/05/19 03:08:57;;;;;;;0.00;0.00;;;15.50;83.90;;;;;;4187890;28;20037;-47
2021/05/19 03:11:20;;;;;;;0.47;0.45;;;15.50;84.00;;;;;;4193716;28;20517;-50
2021/05/19 03:13:41;;;;;;;0.10;0.10;;;15.50;83.90;;;;;;4176359;28;20434;-47
2021/05/19 03:16:03;;;;;;;0.60;0.60;;;15.50;84.00;;;;;;4176694;28;20515;-46
2021/05/19 03:18:25;;;;;;;0.60;0.60;;;15.50;84.00;;;;;;4176552;28;20684;-47
2021/05/19 03:20:47;;;;;;;0.00;0.00;;;15.50;83.90;;;;;;4192953;28;20052;-52
2021/05/19 03:23:09;;;;;;;1.27;1.17;;;15.50;83.90;;;;;;4192563;28;20064;-50
2021/05/19 03:25:31;;;;;;;0.15;0.15;;;15.50;84.00;;;;;;4192922;28;20098;-49
2021/05/19 03:27:52;;;;;;;0.00;0.00;;;15.50;84.00;;;;;;4177919;28;20139;-49
2021/05/19 03:30:18;;;;;;;0.00;0.00;;;15.50;84.00;;;;;;4185759;28;20560;-47
2021/05/19 03:32:40;;;;;;;0.17;0.17;;;15.50;84.10;;;;;;4190743;28;20083;-49
2021/05/19 03:35:01;;;;;;;0.38;0.38;;;15.40;84.10;;;;;;4192500;28;20045;-47
2021/05/19 03:37:24;;;;;;;1.55;1.17;;;15.40;84.10;;;;;;4192723;28;20415;-47
2021/05/19 03:39:46;;;;;;;0.80;0.80;;;15.40;84.10;;;;;;4192810;28;20044;-51
2021/05/19 03:42:08;;;;;;;4.68;0.73;;;15.40;84.10;;;;;;4177458;28;20077;-46
2021/05/19 03:44:29;;;;;;;0.15;0.15;;;15.40;84.10;;;;;;4175717;28;20051;-47
2021/05/19 03:46:53;;;;;;;0.28;0.28;;;15.40;84.10;;;;;;4175794;28;20076;-47
2021/05/19 03:49:15;;;;;;;0.10;0.10;;;15.40;84.20;;;;;;4192874;28;20853;-49
2021/05/19 03:51:37;;;;;;;0.15;0.10;;;15.40;84.20;;;;;;4192253;28;20056;-52
2021/05/19 03:54:00;;;;;;;0.75;0.75;;;15.40;84.20;;;;;;4192622;28;20509;-50
2021/05/19 03:56:22;;;;;;;0.00;0.00;;;15.40;84.20;;;;;;4192439;28;20052;-51
2021/05/19 03:58:45;;;;;;;0.10;0.10;;;15.40;84.20;;;;;;4192975;28;20402;-51
2021/05/19 04:01:06;;;;;;;0.00;0.00;;;15.40;84.30;;;;;;4184370;28;20495;-47
2021/05/19 04:03:28;;;;;;;0.00;0.00;;;15.40;84.30;;;;;;4178394;28;20049;-49
2021/05/19 04:05:49;;;;;;;0.45;0.45;;;15.40;85.10;;;;;;4188866;28;20052;-47
2021/05/19 04:08:11;;;;;;;0.45;0.45;;;15.40;84.30;;;;;;4196683;28;20130;-48
2021/05/19 04:10:35;;;;;;;0.17;0.17;;;15.40;84.30;;;;;;4191776;28;20094;-49
2021/05/19 04:12:56;;;;;;;0.77;0.77;;;15.40;84.40;;;;;;4209019;28;20056;-47
2021/05/19 04:15:19;;;;;;;0.00;0.00;;;15.40;84.40;;;;;;4208953;28;20037;-46
2021/05/19 04:17:40;;;;;;;0.00;0.00;;;15.40;84.40;;;;;;4208701;28;20523;-51
2021/05/19 04:20:03;;;;;;;0.03;0.03;;;15.40;84.40;;;;;;4202270;28;20139;-50
2021/05/19 04:22:24;;;;;;;0.03;0.03;;;15.40;84.40;;;;;;4191699;28;20072;-49
2021/05/19 04:24:46;;;;;;;0.40;0.40;;;15.40;84.40;;;;;;4191918;28;20135;-47
2021/05/19 04:27:09;;;;;;;0.00;0.00;;;15.40;84.40;;;;;;4191913;28;20579;-49
2021/05/19 04:29:31;;;;;;;0.10;0.10;;;15.40;84.40;;;;;;4195303;28;20525;-49
2021/05/19 04:31:53;;;;;;;0.00;0.00;;;15.40;84.40;;;;;;4208747;28;20091;-47
2021/05/19 04:34:14;;;;;;;0.75;0.75;;;15.40;84.50;;;;;;4208307;28;20097;-52
2021/05/19 04:36:36;;;;;;;;;;;15.40;84.50;;;;;;4191949;28;20059;-46
2021/05/19 04:38:57;;;;;;;0.10;0.10;;;15.40;84.60;;;;;;4192870;28;19960;-47
2021/05/19 04:41:20;;;;;;;0.00;0.00;;;15.40;84.60;;;;;;4191438;28;20106;-47
2021/05/19 04:43:43;;;;;;;0.10;0.10;;;15.40;84.60;;;;;;4191344;28;20495;-52
2021/05/19 04:46:05;;;;;;;0.47;0.47;;;15.40;84.60;;;;;;4191826;28;20044;-52
2021/05/19 04:48:27;;;;;;;0.00;0.00;;;15.40;84.60;;;;;;4176597;28;20052;-50
2021/05/19 04:50:49;;;;;;;0.05;0.05;;;15.40;84.70;;;;;;4192657;28;20052;-47
2021/05/19 04:53:11;;;;;;;0.00;0.00;;;15.40;84.80;;;;;;4192974;28;20244;-51
2021/05/19 04:55:32;;;;;;;0.10;0.10;;;15.40;85.00;;;;;;4193095;28;20072;-50
2021/05/19 04:57:54;;;;;;;0.10;0.10;;;15.40;85.10;;;;;;4191520;28;20047;-48
2021/05/19 05:00:17;;;;;;;0.00;0.00;;;15.40;84.90;;;;;;4204445;28;20457;-50
2021/05/19 05:02:40;;;;;;;0.15;0.15;;;15.40;84.80;;;;;;4208131;28;20145;-52
2021/05/19 05:05:01;;;;;;;0.30;0.30;;;15.40;84.80;;;;;;4207035;28;20417;-47
2021/05/19 05:07:24;;;;;;;0.00;0.00;;;15.40;84.80;;;;;;4207970;28;20123;-51
2021/05/19 05:09:47;;;;;;;0.85;0.75;;;15.40;84.70;;;;;;4203605;28;20055;-48
2021/05/19 05:12:09;;;;;;;1.48;1.38;;;15.40;84.70;;;;;;4176261;28;20068;-47
2021/05/19 05:14:30;;;;;;;0.47;0.47;;;15.40;84.80;;;;;;4174841;28;20498;-47
2021/05/19 05:16:53;;;;;;;0.65;0.65;;;15.40;85.20;;;;;;4189754;28;20135;-50
2021/05/19 05:19:15;;;;;;;0.30;0.30;;;15.40;86.40;;;;;;4176788;28;20052;-49
2021/05/19 05:21:36;;;;;;;0.13;0.13;;;15.50;85.60;;;;;;4191255;28;20116;-49
2021/05/19 05:23:58;;;;;;;0.00;0.00;;;15.50;86.70;;;;;;4190758;28;20129;-48
2021/05/19 05:26:20;;;;;;;0.00;0.00;;;15.40;85.80;;;;;;4191030;28;20044;-47
2021/05/19 05:28:41;;;;;;;0.00;0.00;;;15.50;86.10;;;;;;4190386;28;20044;-50
2021/05/19 05:31:03;;;;;;;1.10;1.00;;;15.50;86.80;;;;;;4173982;28;20487;-47
2021/05/19 05:33:25;;;;;;;;;;;15.60;86.40;;;;;;4174231;28;20108;-48
2021/05/19 05:35:47;;;;;;;0.85;0.85;;;15.60;86.10;;;;;;4191048;28;19920;-48
2021/05/19 05:38:08;;;;;;;;;;;15.60;85.80;;;;;;4188674;28;22287;-49
2021/05/19 05:40:29;;;;;;;0.43;0.43;;;15.60;85.70;;;;;;4193480;28;20290;-48
2021/05/19 05:42:51;;;;;;;0.98;0.90;;;15.60;85.60;;;;;;4193431;28;20047;-47
2021/05/19 05:45:13;;;;;;;;;;;15.60;85.50;;;;;;4194531;28;20078;-46
2021/05/19 05:47:36;;;;;;;0.17;0.17;;;15.60;85.40;;;;;;4192697;28;20010;-48
2021/05/19 05:50:01;;;;;;;54.67;1.45;;;15.50;85.30;;;;;;4183710;28;20045;-48
2021/05/19 05:52:23;;;;;;;0.10;0.10;;;15.60;85.30;;;;;;4174273;28;20044;-49
2021/05/19 05:54:45;;;;;;;0.00;0.00;;;15.50;85.20;;;;;;4190632;28;20049;-47
2021/05/19 05:57:07;;;;;;;0.00;0.00;;;15.50;85.20;;;;;;4196421;28;20062;-49
2021/05/19 05:59:29;;;;;;;0.22;0.22;;;15.50;85.10;;;;;;4196681;28;20056;-49
2021/05/19 06:01:51;;;;;;;0.55;0.55;;;15.50;85.90;;;;;;4191242;28;20068;-51
2021/05/19 06:04:12;;;;;;;0.08;0.08;;;15.50;85.10;;;;;;4196952;28;21157;-49
2021/05/19 06:06:35;;;;;;;0.00;0.00;;;15.50;85.00;;;;;;4198932;28;20055;-47
2021/05/19 06:08:57;;;;;;;0.75;0.75;;;15.50;85.10;;;;;;4205918;28;20044;-50
2021/05/19 06:11:19;;;;;;;4.30;1.35;;;15.50;85.00;;;;;;4206000;28;20051;-45
2021/05/19 06:13:41;;;;;;;0.00;0.00;;;15.50;84.90;;;;;;4190636;28;20070;-47
2021/05/19 06:16:03;;;;;;;0.00;0.00;;;15.50;84.90;;;;;;4175847;28;20414;-48
2021/05/19 06:18:25;;;;;;;0.65;0.65;;;15.50;84.90;;;;;;4182182;28;20048;-49
2021/05/19 06:20:46;;;;;;;0.00;0.00;;;15.50;84.90;;;;;;4197655;28;20050;-48
2021/05/19 06:23:09;;;;;;;1.27;0.15;;;15.50;84.90;;;;;;4191335;28;20055;-49
2021/05/19 06:25:30;;;;;;;0.00;0.00;;;15.50;84.90;;;;;;4190479;28;20045;-49
2021/05/19 06:27:52;;;;;;;;;;;15.50;84.90;;;;;;4192196;28;20060;-47
2021/05/19 06:30:15;;;;;;;0.00;0.00;;;15.50;84.90;;;;;;4199398;28;19920;-46
2021/05/19 06:32:37;;;;;;;0.15;0.15;;;15.50;84.80;;;;;;4195920;28;20131;-48
2021/05/19 06:34:59;;;;;;;0.08;0.08;;;15.50;84.80;;;;;;4185850;28;20064;-50
2021/05/19 06:37:21;;;;;;;0.00;0.00;;;15.50;85.70;;;;;;4174547;28;20849;-48
2021/05/19 06:39:44;;;;;;;0.17;0.17;;;15.50;85.00;;;;;;4183367;28;20513;-53
2021/05/19 06:42:06;;;;;;;2.10;0.30;;;15.50;85.00;;;;;;4190599;28;20057;-50
2021/05/19 06:44:28;;;;;;;0.10;0.10;;;15.50;85.10;;;;;;4194760;28;20048;-47
2021/05/19 06:46:50;;;;;;;0.00;0.00;;;15.50;85.10;;;;;;4192825;28;20076;-51
2021/05/19 06:49:13;;;;;;;0.10;0.10;;;15.50;85.00;;;;;;4196689;28;20078;-48
2021/05/19 06:51:34;;;;;;;0.15;0.15;;;15.50;84.90;;;;;;4210245;28;20509;-51
2021/05/19 06:53:57;;;;;;;0.93;0.68;;;15.50;84.90;;;;;;4209050;28;20066;-51
2021/05/19 06:56:19;;;;;;;0.22;0.22;;;15.50;84.80;;;;;;4205157;28;20059;-49
2021/05/19 06:58:40;;;;;;;0.30;0.30;;;15.50;84.80;;;;;;4204450;28;20521;-51
2021/05/19 07:01:03;;;;;;;0.00;0.00;;;15.50;84.60;;;;;;4192916;28;20098;-52
2021/05/19 07:03:24;;;;;;;;;;;15.50;84.60;;;;;;4193531;28;20076;-48
2021/05/19 07:05:45;;;;;;;0.00;0.00;;;15.50;84.60;;;;;;4194208;28;20027;-51
2021/05/19 07:08:09;;;;;;;0.28;0.28;;;15.50;84.70;;;;;;4192961;28;20048;-47
2021/05/19 07:10:31;;;;;;;3.42;1.45;;;15.50;84.80;;;;;;4207662;28;20048;-49
2021/05/19 07:12:53;;;;;;;0.63;0.63;;;15.50;84.80;;;;;;4195034;28;20417;-51
2021/05/19 07:15:17;;;;;;;0.00;0.00;;;15.50;84.70;;;;;;4193492;28;20114;-49
2021/05/19 07:17:39;;;;;;;1.55;0.57;;;15.60;84.70;;;;;;4193094;28;20131;-48
2021/05/19 07:20:00;;;;;;;0.20;0.20;;;15.60;84.80;;;;;;4181092;28;20183;-48
2021/05/19 07:22:25;;;;;;;0.38;0.38;;;15.60;84.80;;;;;;4178298;28;20053;-52
2021/05/19 07:24:48;;;;;;;0.00;0.00;;;15.60;84.70;;;;;;4177612;28;20055;-55
2021/05/19 07:27:09;;;;;;;0.55;0.55;;;15.60;84.70;;;;;;4192955;28;20469;-49
2021/05/19 07:29:32;;;;;;;0.65;0.65;;;15.60;84.70;;;;;;4194532;28;20064;-51
2021/05/19 07:31:53;;;;;;;0.55;0.55;;;15.60;84.60;;;;;;4193252;28;20130;-51
2021/05/19 07:34:15;;;;;;;0.30;0.30;;;15.60;84.60;;;;;;4196253;28;20461;-50
2021/05/19 07:36:37;;;;;;;0.20;0.20;;;15.60;84.50;;;;;;4199811;28;20059;-47
2021/05/19 07:38:58;;;;;;;0.08;0.08;;;15.70;84.60;;;;;;4191106;28;20119;-45
2021/05/19 07:41:21;;;;;;;7.32;0.90;;;15.60;84.40;;;;;;4188525;28;20060;-47
2021/05/19 07:43:42;;;;;;;0.35;0.35;;;15.70;84.50;;;;;;4191232;28;20131;-46
2021/05/19 07:46:04;;;;;;;0.93;0.93;;;15.70;84.40;;;;;;4191189;28;20040;-48
2021/05/19 07:48:25;;;;;;;0.00;0.00;;;15.70;84.40;;;;;;4192516;28;20044;-47
2021/05/19 07:50:45;;;;;;;0.30;0.30;;;15.70;84.40;;;;;;4175859;28;20044;-48
2021/05/19 07:53:06;;;;;;;2.00;1.02;;;15.70;84.30;;;;;;4177405;28;20052;-48
2021/05/19 07:55:29;;;;;;;0.00;0.00;;;15.70;84.20;;;;;;4193091;28;20049;-47
2021/05/19 07:57:52;;;;;;;5.93;0.73;;;15.70;84.20;;;;;;4193439;28;20044;-47
2021/05/19 08:00:14;;;;;;;0.70;0.52;;;15.70;84.10;;;;;;4191978;28;20110;-51
2021/05/19 08:02:37;;;;;;;1.23;1.17;;;15.80;84.20;;;;;;4178275;28;20052;-49
2021/05/19 08:04:57;;;;;;;0.00;0.00;;;15.80;83.90;;;;;;4188947;28;20056;-49
2021/05/19 08:07:17;;;;;;;0.47;0.47;;;15.80;83.80;;;;;;4192348;28;20044;-46
2021/05/19 08:09:38;;;;;;;0.20;0.20;;;15.80;83.80;;;;;;4191784;28;20052;-48
2021/05/19 08:11:59;;;;;;;0.70;0.70;;;15.90;83.80;;;;;;4176656;28;20075;-51
2021/05/19 08:14:19;;;;;;;0.45;0.45;;;15.90;83.60;;;;;;4180883;28;20059;-50
2021/05/19 08:16:40;;;;;;;0.68;0.57;;;16.00;83.30;;;;;;4208172;28;20391;-51
2021/05/19 08:19:01;;;;;;;1.17;1.13;;;16.00;83.10;;;;;;4187005;28;20559;-49
2021/05/19 08:21:23;;;;;;;0.38;0.38;;;16.00;83.00;;;;;;4175618;28;20045;-50
2021/05/19 08:23:46;;;;;;;0.10;0.10;;;16.00;83.00;;;;;;4175436;28;20045;-45
2021/05/19 08:26:07;;;;;;;0.00;0.00;;;16.00;82.90;;;;;;4176472;28;20048;-47
2021/05/19 08:28:31;;;;;;;6.22;1.33;;;16.00;82.80;;;;;;4191763;28;20056;-52
2021/05/19 08:30:53;;;;;;;1.02;1.02;;;16.10;82.80;;;;;;4191792;28;20135;-48
2021/05/19 08:33:25;;;;;;;0.10;0.10;;;16.20;82.70;;;;;;4192364;28;20049;-48
2021/05/19 08:35:47;;;;;;;0.10;0.10;;;16.20;82.20;;;;;;4197394;28;20072;-46
2021/05/19 08:38:09;;;;;;;5.28;3.20;;;16.30;81.80;;;;;;4199537;28;20048;-50
2021/05/19 08:40:31;;;;;;;0.32;0.32;;;16.30;81.40;;;;;;4199851;28;20052;-47
2021/05/19 08:42:53;;;;;;;1.20;1.20;;;16.30;81.10;;;;;;4197278;28;20552;-50
2021/05/19 08:45:15;;;;;;;0.68;0.68;;;16.40;81.10;;;;;;4191770;28;20388;-47
2021/05/19 08:47:37;;;;;;;0.77;0.77;;;16.40;81.10;;;;;;4190138;28;20044;-49
2021/05/19 08:50:01;;;;;;;1.67;1.52;;;16.40;81.10;;;;;;4191362;28;20048;-47
2021/05/19 08:52:23;;;;;;;0.32;0.32;;;16.50;81.90;;;;;;4191760;28;20052;-52
2021/05/19 08:54:45;;;;;;;1.85;0.90;;;16.50;80.90;;;;;;4192006;28;20498;-51
2021/05/19 08:57:06;;;;;;;0.52;0.52;;;16.50;80.70;;;;;;4191405;28;20048;-50
2021/05/19 08:59:28;;;;;;;0.95;0.95;;;16.60;80.70;;;;;;4189987;28;20048;-51
2021/05/19 09:01:52;;;;;;;0.00;0.00;;;16.60;80.40;;;;;;4191519;28;20063;-47
2021/05/19 09:04:19;;;;;;;0.13;0.13;;;16.60;80.20;;;;;;4199489;28;20048;-51
2021/05/19 09:06:41;;;;;;;0.00;0.00;;;16.70;80.10;;;;;;4193569;28;20048;-50
2021/05/19 09:09:22;;;;;;;0.35;0.35;;;16.70;80.00;;;;;;4189703;28;20546;-51
2021/05/19 09:11:55;;;;;;;0.10;0.10;;;16.80;79.80;;;;;;4198346;28;20047;-48
2021/05/19 09:14:17;;;;;;;0.30;0.30;;;16.80;79.60;;;;;;4199430;28;20048;-53
2021/05/19 09:16:38;;;;;;;0.00;0.00;;;16.80;79.20;;;;;;4196487;28;20060;-49
2021/05/19 09:19:00;;;;;;;;;;;16.90;79.00;;;;;;4204427;28;20044;-53
2021/05/19 09:21:36;;;;;;;1.20;1.17;;;17.00;78.90;;;;;;4208054;28;19920;-53
2021/05/19 09:23:59;;;;;;;0.28;0.28;;;17.00;78.70;;;;;;4207785;28;20474;-50
2021/05/19 09:26:21;;;;;;;0.10;0.10;;;17.10;78.50;;;;;;4200782;28;20135;-51
2021/05/19 09:28:43;;;;;;;0.55;0.55;;;17.10;78.30;;;;;;4191262;28;20044;-47
2021/05/19 09:31:19;;;;;;;0.32;0.32;;;17.10;78.20;;;;;;4185082;28;20075;-51
2021/05/19 09:33:41;;;;;;;0.57;0.57;;;17.10;78.20;;;;;;4190359;28;20487;-46
2021/05/19 09:36:15;;;;;;;0.80;0.75;;;17.20;78.20;;;;;;4207680;28;20048;-49
2021/05/19 09:38:37;;;;;;;0.08;0.08;;;17.20;78.00;;;;;;4205681;28;20473;-46
2021/05/19 09:41:13;;;;;;;;;;;17.30;77.90;;;;;;4202529;28;20044;-46
2021/05/19 09:43:35;;;;;;;1.10;0.50;;;17.30;77.70;;;;;;4191038;28;20011;-48
2021/05/19 09:46:05;;;;;;;0.05;0.05;;;17.40;77.50;;;;;;4175896;28;20103;-50
2021/05/19 09:48:27;;;;;;;0.38;0.38;;;17.40;77.40;;;;;;4172336;28;20061;-45
2021/05/19 09:50:50;;;;;;;0.10;0.10;;;17.50;77.30;;;;;;4185450;28;20044;-49
2021/05/19 09:53:13;;;;;;;0.10;0.10;;;17.40;77.10;;;;;;4207402;28;20040;-49
2021/05/19 09:55:36;;;;;;;0.50;0.50;;;17.40;77.20;;;;;;4203675;28;20070;-48
2021/05/19 09:57:58;;;;;;;0.20;0.20;;;17.40;77.10;;;;;;4179643;28;20491;-51
2021/05/19 10:00:23;;;;;;;0.80;0.80;;;17.40;77.10;;;;;;4181633;28;20049;-52
2021/05/19 10:02:47;;;;;;;0.57;0.57;;;17.40;77.10;;;;;;4174327;28;20056;-45
2021/05/19 10:05:13;;;;;;;0.17;0.17;;;17.40;76.80;;;;;;4174045;28;20057;-46
2021/05/19 10:07:35;;;;;;;2.67;1.10;;;17.50;76.80;;;;;;4189627;28;20052;-48
2021/05/19 10:09:56;;;;;;;1.00;1.00;;;17.50;76.80;;;;;;4192318;28;20051;-47
2021/05/19 10:12:20;;;;;;;0.08;0.08;;;17.40;76.80;;;;;;4196551;28;20102;-48
2021/05/19 10:14:42;;;;;;;2.63;0.50;;;17.40;76.80;;;;;;4190382;28;20491;-49
2021/05/19 10:17:07;;;;;;;1.88;1.77;;;17.40;76.70;;;;;;4190728;28;20045;-48
2021/05/19 10:19:37;;;;;;;3.60;0.45;;;17.30;76.80;;;;;;4206058;28;20072;-46
2021/05/19 10:22:00;;;;;;;1.25;0.45;;;17.30;77.00;;;;;;4193511;28;20054;-49
2021/05/19 10:24:42;;;;;;;1.33;1.33;;;17.30;77.20;;;;;;4193774;28;20052;-48
2021/05/19 10:27:06;;;;;;;0.22;0.22;;;17.20;77.40;;;;;;4193309;28;20105;-49
2021/05/19 10:29:50;;;;;;;0.75;0.75;;;17.20;77.60;;;;;;4201170;28;20044;-48
2021/05/19 10:32:32;;;;;;;1.05;0.95;;;17.10;78.10;;;;;;4193445;28;20051;-45
2021/05/19 10:34:55;;;;;;;0.05;0.05;;;17.10;78.10;;;;;;4176757;28;20099;-46
2021/05/19 10:37:34;;;;;;;2.53;1.00;;;17.10;78.20;;;;;;4177009;28;20083;-49
2021/05/19 10:40:30;;;;;;;0.50;0.50;;;17.00;78.30;;;;;;4188429;28;20081;-49
2021/05/19 10:42:54;;;;;;;0.20;0.20;;;17.00;78.40;;;;;;4210356;28;20048;-50
2021/05/19 10:45:16;;;;;;;0.80;0.80;;;16.90;78.20;;;;;;4197602;28;20044;-50
2021/05/19 10:47:38;;;;;;;;;;;16.80;77.90;;;;;;4198472;28;20049;-46
2021/05/19 10:50:11;;;;;;;0.95;0.95;;;16.80;77.90;;;;;;4177881;28;20629;-46
2021/05/19 10:57:10;;;;;;;0.47;0.47;;;16.80;78.30;;;;;;4176862;28;20053;-47
2021/05/19 10:58:36;;;;;;;0.43;0.43;;;16.80;78.70;;;;;;4184706;28;20044;-46
2021/05/19 11:00:58;;;;;;;0.00;0.00;;;16.70;79.00;;;;;;4185120;28;20091;-47
2021/05/19 11:03:22;;;;;;;0.50;0.50;;;16.70;79.30;;;;;;4191053;28;20056;-45
2021/05/19 11:06:04;;;;;;;0.10;0.10;;;16.70;79.70;;;;;;4193213;28;20054;-47
2021/05/19 11:08:28;;;;;;;0.45;0.45;;;16.70;79.70;;;;;;4190474;28;20052;-48
2021/05/19 11:10:52;;;;;;;0.30;0.30;;;16.60;79.80;;;;;;4182460;28;20080;-50
2021/05/19 11:13:16;;;;;;;0.25;0.25;;;16.60;80.00;;;;;;4183649;28;20542;-48
2021/05/19 11:15:52;;;;;;;0.43;0.43;;;16.60;81.00;;;;;;4191421;28;20040;-47
2021/05/19 11:18:16;;;;;;;0.10;0.10;;;16.70;79.80;;;;;;4191166;28;20621;-45
2021/05/19 11:20:38;;;;;;;0.57;0.57;;;16.70;79.50;;;;;;4176667;28;20907;-48
2021/05/19 11:23:09;;;;;;;0.10;0.10;;;16.70;79.10;;;;;;4176511;28;20057;-45
2021/05/19 11:25:31;;;;;;;0.10;0.10;;;16.70;79.00;;;;;;4176281;28;20439;-46
2021/05/19 11:27:58;;;;;;;0.10;0.10;;;16.70;78.90;;;;;;4176482;28;20094;-46
2021/05/19 11:30:25;;;;;;;1.55;0.90;;;16.70;78.70;;;;;;4194198;28;20063;-47
2021/05/19 11:32:47;;;;;;;0.20;0.20;;;16.70;78.60;;;;;;4207735;28;20549;-49
2021/05/19 11:35:14;;;;;;;0.00;0.00;;;16.70;78.50;;;;;;4209259;28;20047;-45
2021/05/19 11:37:52;;;;;;;0.98;0.98;;;16.70;78.60;;;;;;4208056;28;20059;-49
2021/05/19 11:40:14;;;;;;;0.00;0.00;;;16.70;78.50;;;;;;4187739;28;20124;-47
2021/05/19 11:42:36;;;;;;;0.45;0.45;;;16.70;79.40;;;;;;4193405;28;20048;-47
2021/05/19 11:45:01;;;;;;;0.00;0.00;;;16.70;78.50;;;;;;4197549;28;20490;-49
2021/05/19 11:47:33;;;;;;;0.08;0.08;;;16.70;78.50;;;;;;4192477;28;20082;-49
2021/05/19 11:50:11;;;;;;;0.00;0.00;;;16.80;78.50;;;;;;4190455;28;20556;-49
2021/05/19 11:52:41;;;;;;;0.32;0.32;;;16.70;78.50;;;;;;4178643;28;20411;-49
2021/05/19 11:55:03;;;;;;;0.10;0.10;;;16.70;78.60;;;;;;4192392;28;20105;-48
2021/05/19 11:57:25;;;;;;;0.00;0.00;;;16.70;78.70;;;;;;4192584;28;20041;-47
2021/05/19 11:59:46;;;;;;;;;;;16.70;78.60;;;;;;4200588;28;20498;-47
2021/05/19 12:02:12;;;;;;;0.00;0.00;;;16.70;78.50;;;;;;4209171;28;19924;-47
2021/05/19 12:04:35;;;;;;;0.05;0.05;;;16.60;78.50;;;;;;4201157;28;20036;-46
2021/05/19 12:06:59;;;;;;;0.10;0.10;;;16.70;78.70;;;;;;4195665;28;20060;-46
2021/05/19 12:09:23;;;;;;;0.10;0.10;;;16.70;78.90;;;;;;4192553;28;20076;-50
2021/05/19 12:11:45;;;;;;;0.00;0.00;;;16.70;79.00;;;;;;4192157;28;20149;-48
2021/05/19 12:14:10;;;;;;;0.00;0.00;;;16.60;79.00;;;;;;4192496;28;20059;-48
2021/05/19 12:16:33;;;;;;;0.10;0.10;;;16.60;79.00;;;;;;4191742;28;20052;-46
2021/05/19 12:18:59;;;;;;;0.00;0.00;;;16.60;79.00;;;;;;4192151;28;20389;-47
2021/05/19 12:21:21;;;;;;;1.50;0.40;;;16.60;78.90;;;;;;4195758;28;20044;-46
2021/05/19 12:23:43;;;;;;;0.32;0.32;;;16.60;79.10;;;;;;4206924;28;20109;-46
2021/05/19 12:26:08;;;;;;;0.00;0.00;;;16.60;79.40;;;;;;4191858;28;20044;-47
2021/05/19 12:28:29;;;;;;;0.10;0.10;;;16.60;79.80;;;;;;4191608;28;20045;-46
2021/05/19 12:30:57;;;;;;;0.03;0.03;;;16.60;80.00;;;;;;4192722;28;20110;-49
2021/05/19 12:33:22;;;;;;;0.00;0.00;;;16.60;80.30;;;;;;4191666;28;20131;-57
2021/05/19 12:35:47;;;;;;;0.00;0.00;;;16.60;80.50;;;;;;4191840;28;20076;-54